Airfield :







YOU CAN JOIN US ON...

 
LOGIN :

Register | Disclaimer

   EN    FR    IT 

 









Legend :    VFR   Marginal VFR   IFR   Intensive IFR   Very Intensive IFR
Visi :
Ceiling :
>= 8 km
>= 3000ft
5 to 8 km
1000 to 3000 ft
1500m to 5 km
500 to 1000 ft
800 to 1500m
200 to 500 ft
< 800m
< 200 ft
Symbols :   Thunderstorms  Fog  Heavy snow  Heavy precipitations  Wind > 20 kt






- Airport Elevation : 477 ft
- IATA code : YHZ


CYHZ - Halifax Stanfield Int.

CURRENT METAR :
  • 241000Z 33007KT 15SM SCT210 M02/M02 A3035 RMK CS3 SLP286

EXPIRED METARs :
  • 240900Z 31007KT 15SM SCT180 M01/M01 A3033 RMK AS3 SLP279
  • 240800Z 30006KT 15SM BKN240 00/M01 A3032 RMK CS6 SLP276

TAF TAF CYHZ
Valid from the 24 at 09:00 until the 25 at 06:00 UTC


240838Z 2409/2506 30006KT P6SM BKN240
PROB30 2409/2413 1SM BR BKN003
FM241300 29008KT P6SM BKN200
FM242000 26010KT P6SM BKN150
FM250000 05008KT 6SM BR FEW006 BKN120
PROB30 2500/2506 1SM BR BKN006 RMK NXT FCST BY 241200Z



MET'MAP, your aeronautical weather chart ! - Copyright ORBIFLY December 2007 - Disclaimer

ORBIFLY MET'MAP TEAM :

Programming & Development : Alexandra Zaïnal
Concept & original design : Baudouin d'Aumeries
Assistance for programming : Marc-Olivier Méhu
Technical & hardware support : Manuel Goepfert

Contact : metmap@orbifly.com




SOURCES & CREDITS :

   NOAA